Time;durP1;ratioP1;P1;durP2;ratioP2;P2;SDS_P1;SDS_P2;PMS_P1;PMS_P2;Temp;Humidity;BMP_temperature;BMP_pressure;BME280_temperature;BME280_humidity;BME280_pressure;Samples;Min_cycle;Max_cycle;Signal;HPM_P1;HPM_P2
2023/03/24 00:02:27;;;;;;;12.95;5.28;;;;;;;;;;5052270;28;20047;-62
2023/03/24 00:04:57;;;;;;;13.27;4.45;;;;;;;;;;5034377;28;20044;-62
2023/03/24 00:07:24;;;;;;;9.10;4.47;;;;;;;;;;5051632;28;20041;-62
2023/03/24 00:09:50;;;;;;;13.23;4.63;;;;;;;;;;5034320;28;20493;-62
2023/03/24 00:12:18;;;;;;;9.18;4.40;;;;;;;;;;5052187;28;20045;-62
2023/03/24 00:14:47;;;;;;;13.52;4.97;;;;;;;;;;5051540;28;20106;-62
2023/03/24 00:17:16;;;;;;;10.77;5.30;;;;;;;;;;5051967;28;20086;-62
2023/03/24 00:19:44;;;;;;;10.80;4.95;;;;;;;;;;5051818;28;20479;-62
2023/03/24 00:22:13;;;;;;;10.48;4.95;;;;;;;;;;5050817;28;20049;-62
2023/03/24 00:24:40;;;;;;;9.07;4.45;;;;;;;;;;5051776;28;20053;-62
2023/03/24 00:27:06;;;;;;;11.02;5.47;;;;;;;;;;5051746;28;20380;-62
2023/03/24 00:29:32;;;;;;;11.63;5.13;;;;;;;;;;5051121;28;20045;-62
2023/03/24 00:31:59;;;;;;;11.05;5.05;;;;;;;;;;5051836;28;20048;-62
2023/03/24 00:34:26;;;;;;;8.30;4.43;;;;;;;;;;5051660;28;20041;-62
2023/03/24 00:36:52;;;;;;;9.82;4.20;;;;;;;;;;5051115;28;20140;-62
2023/03/24 00:39:19;;;;;;;9.05;4.10;;;;;;;;;;5051431;28;20546;-62
2023/03/24 00:41:46;;;;;;;15.55;5.25;;;;;;;;;;5033523;28;20118;-62
2023/03/24 00:44:16;;;;;;;8.45;4.70;;;;;;;;;;5050797;28;20136;-61
2023/03/24 00:46:55;;;;;;;7.95;4.55;;;;;;;;;;5051452;28;20049;-61
2023/03/24 00:49:41;;;;;;;13.90;5.05;;;;;;;;;;5051146;28;20043;-61
2023/03/24 00:52:23;;;;;;;12.57;4.45;;;;;;;;;;5050821;28;20124;-61
2023/03/24 00:54:57;;;;;;;8.60;4.50;;;;;;;;;;5051313;28;20388;-61
2023/03/24 00:57:24;;;;;;;11.38;4.80;;;;;;;;;;5051397;28;20040;-61
2023/03/24 00:59:51;;;;;;;11.18;5.28;;;;;;;;;;5050671;28;20702;-61
2023/03/24 01:02:21;;;;;;;8.35;4.30;;;;;;;;;;5051138;28;20033;-61
2023/03/24 01:04:47;;;;;;;9.98;4.22;;;;;;;;;;5051226;28;20040;-61
2023/03/24 01:07:17;;;;;;;11.77;4.50;;;;;;;;;;5050660;28;20045;-61
2023/03/24 01:09:45;;;;;;;11.40;4.85;;;;;;;;;;5050890;28;20120;-61
2023/03/24 01:12:11;;;;;;;12.88;5.00;;;;;;;;;;5051086;28;20495;-61
2023/03/24 01:14:37;;;;;;;8.30;4.50;;;;;;;;;;5050219;28;20049;-61
2023/03/24 01:17:05;;;;;;;6.50;4.15;;;;;;;;;;5050976;28;20471;-61
2023/03/24 01:19:31;;;;;;;8.40;4.07;;;;;;;;;;5050695;28;20601;-61
2023/03/24 01:21:58;;;;;;;7.90;3.88;;;;;;;;;;5050033;28;20479;-61
2023/03/24 01:24:24;;;;;;;8.63;5.00;;;;;;;;;;5050506;28;20068;-61
2023/03/24 01:26:50;;;;;;;9.98;4.00;;;;;;;;;;5050652;28;20045;-61
2023/03/24 01:29:16;;;;;;;8.48;4.03;;;;;;;;;;5050015;28;20268;-61
2023/03/24 01:31:42;;;;;;;7.88;4.63;;;;;;;;;;5050586;28;20071;-61
2023/03/24 01:34:08;;;;;;;8.18;4.75;;;;;;;;;;5050251;28;20041;-61
2023/03/24 01:36:34;;;;;;;10.32;4.40;;;;;;;;;;5050129;28;20069;-61
2023/03/24 01:39:01;;;;;;;7.75;4.80;;;;;;;;;;5050362;28;20069;-61
2023/03/24 01:41:30;;;;;;;9.75;4.60;;;;;;;;;;5050677;28;20041;-61
2023/03/24 01:43:56;;;;;;;8.63;4.43;;;;;;;;;;5049959;28;20044;-61
2023/03/24 01:46:25;;;;;;;7.78;4.10;;;;;;;;;;5050533;28;20032;-61
2023/03/24 01:48:51;;;;;;;7.75;4.47;;;;;;;;;;5050509;28;20123;-61
2023/03/24 01:51:20;;;;;;;10.20;4.32;;;;;;;;;;5049850;28;20040;-61
2023/03/24 01:53:49;;;;;;;6.25;4.03;;;;;;;;;;5050491;28;20072;-61
2023/03/24 01:56:15;;;;;;;8.35;4.47;;;;;;;;;;5050740;28;20076;-61
2023/03/24 01:58:45;;;;;;;10.80;4.22;;;;;;;;;;5050009;28;20644;-61
2023/03/24 02:01:11;;;;;;;7.03;3.95;;;;;;;;;;5050582;28;20567;-61
2023/03/24 02:03:39;;;;;;;9.10;3.80;;;;;;;;;;5050376;28;20045;-61
2023/03/24 02:06:07;;;;;;;8.57;4.32;;;;;;;;;;5049842;28;20394;-61
2023/03/24 02:08:48;;;;;;;8.65;4.47;;;;;;;;;;5050330;28;20444;-61
2023/03/24 02:11:15;;;;;;;10.77;4.75;;;;;;;;;;5050341;28;20040;-61
2023/03/24 02:13:41;;;;;;;7.13;4.38;;;;;;;;;;5049666;28;20044;-61
2023/03/24 02:16:11;;;;;;;7.85;4.38;;;;;;;;;;5050312;28;20101;-61
2023/03/24 02:18:43;;;;;;;8.18;4.07;;;;;;;;;;5050456;28;20041;-61
2023/03/24 02:21:28;;;;;;;7.80;4.40;;;;;;;;;;5049620;28;20044;-61
2023/03/24 02:24:12;;;;;;;6.00;4.20;;;;;;;;;;5049654;28;20088;-61
2023/03/24 02:27:12;;;;;;;5.97;4.45;;;;;;;;;;5050158;28;20044;-61
2023/03/24 02:29:41;;;;;;;10.18;4.65;;;;;;;;;;5037313;28;20061;-61
2023/03/24 02:32:10;;;;;;;9.25;4.60;;;;;;;;;;5050322;28;20049;-61
2023/03/24 02:35:03;;;;;;;8.07;4.85;;;;;;;;;;5050178;28;20041;-61
2023/03/24 02:37:38;;;;;;;6.40;4.90;;;;;;;;;;5050398;28;20036;-61
2023/03/24 02:40:07;;;;;;;6.78;4.60;;;;;;;;;;5050069;28;20051;-61
2023/03/24 02:42:48;;;;;;;10.95;4.63;;;;;;;;;;5049489;28;20064;-61
2023/03/24 02:45:22;;;;;;;8.00;4.93;;;;;;;;;;5050533;28;20056;-61
2023/03/24 02:48:06;;;;;;;7.65;4.50;;;;;;;;;;5053643;28;20037;-61
2023/03/24 02:50:39;;;;;;;7.90;4.53;;;;;;;;;;5052659;28;20088;-61
2023/03/24 02:53:11;;;;;;;8.70;5.03;;;;;;;;;;5053486;28;20522;-61
2023/03/24 02:55:45;;;;;;;6.15;4.00;;;;;;;;;;5053475;28;20041;-61
2023/03/24 02:58:27;;;;;;;9.85;4.78;;;;;;;;;;5052898;28;20045;-61
2023/03/24 03:00:58;;;;;;;9.68;4.35;;;;;;;;;;5035475;28;20041;-61
2023/03/24 03:03:24;;;;;;;8.20;4.78;;;;;;;;;;5053493;28;20090;-61
2023/03/24 03:06:07;;;;;;;7.78;4.60;;;;;;;;;;5052723;28;20040;-61
2023/03/24 03:08:33;;;;;;;8.20;5.28;;;;;;;;;;5053065;28;20045;-61
2023/03/24 03:11:01;;;;;;;9.75;5.20;;;;;;;;;;5053221;28;20053;-61
2023/03/24 03:13:32;;;;;;;8.20;4.88;;;;;;;;;;5052647;28;20123;-61
2023/03/24 03:16:03;;;;;;;8.40;4.72;;;;;;;;;;5053176;28;20040;-61
2023/03/24 03:18:33;;;;;;;6.85;4.85;;;;;;;;;;5053175;28;20037;-61
2023/03/24 03:21:01;;;;;;;9.07;4.60;;;;;;;;;;5052315;28;20059;-61
2023/03/24 03:23:30;;;;;;;6.78;5.10;;;;;;;;;;5052620;28;20048;-61
2023/03/24 03:26:04;;;;;;;5.18;4.28;;;;;;;;;;5052953;28;20112;-61
2023/03/24 03:28:31;;;;;;;7.05;4.60;;;;;;;;;;5052438;28;20041;-61
2023/03/24 03:31:04;;;;;;;7.38;4.55;;;;;;;;;;5052939;28;20379;-61
2023/03/24 03:33:36;;;;;;;8.52;4.68;;;;;;;;;;5052836;28;20049;-61
2023/03/24 03:36:06;;;;;;;4.72;4.15;;;;;;;;;;5052110;28;20095;-61
2023/03/24 03:38:41;;;;;;;9.48;4.35;;;;;;;;;;5052647;28;20483;-61
2023/03/24 03:41:07;;;;;;;6.72;4.18;;;;;;;;;;5052639;28;20115;-61
2023/03/24 03:43:34;;;;;;;7.28;3.20;;;;;;;;;;5052210;28;20033;-61
2023/03/24 03:46:00;;;;;;;4.00;2.40;;;;;;;;;;5053029;28;20095;-61
2023/03/24 03:48:28;;;;;;;4.43;2.10;;;;;;;;;;5052685;28;20235;-61
2023/03/24 03:50:54;;;;;;;3.30;1.98;;;;;;;;;;5051883;28;20056;-61
2023/03/24 03:53:23;;;;;;;7.10;2.38;;;;;;;;;;5052529;28;20049;-61
2023/03/24 03:55:49;;;;;;;4.32;2.47;;;;;;;;;;5052162;28;20099;-61
2023/03/24 03:58:15;;;;;;;7.70;2.22;;;;;;;;;;5051611;28;20379;-61
2023/03/24 04:00:43;;;;;;;4.88;2.20;;;;;;;;;;5052017;28;20400;-61
2023/03/24 04:03:28;;;;;;;6.35;2.30;;;;;;;;;;5052283;28;20047;-61
2023/03/24 04:06:03;;;;;;;8.50;2.53;;;;;;;;;;5051945;28;20053;-61
2023/03/24 04:08:48;;;;;;;8.02;2.33;;;;;;;;;;5034354;28;20131;-61
2023/03/24 04:11:14;;;;;;;5.45;1.90;;;;;;;;;;5051474;28;20052;-61
2023/03/24 04:13:58;;;;;;;6.85;2.42;;;;;;;;;;5051941;28;20040;-61
2023/03/24 04:16:42;;;;;;;8.40;2.40;;;;;;;;;;5052023;28;20414;-61
2023/03/24 04:19:11;;;;;;;14.00;3.05;;;;;;;;;;5051185;28;20036;-61
2023/03/24 04:21:47;;;;;;;8.18;2.05;;;;;;;;;;5051687;28;20075;-61
2023/03/24 04:24:25;;;;;;;9.23;2.22;;;;;;;;;;5051690;28;20048;-61
2023/03/24 04:26:59;;;;;;;9.43;2.67;;;;;;;;;;5051209;28;20447;-61
2023/03/24 04:29:45;;;;;;;12.65;2.40;;;;;;;;;;5051898;28;20054;-61
2023/03/24 04:32:29;;;;;;;15.13;2.63;;;;;;;;;;5051800;28;20119;-61
2023/03/24 04:35:00;;;;;;;9.18;2.58;;;;;;;;;;5051009;28;20044;-61
2023/03/24 04:37:31;;;;;;;6.03;2.20;;;;;;;;;;5051916;28;20037;-61
2023/03/24 04:39:58;;;;;;;5.20;2.13;;;;;;;;;;5051686;28;20047;-61
2023/03/24 04:42:30;;;;;;;11.20;2.40;;;;;;;;;;5051118;28;20041;-61
2023/03/24 04:44:56;;;;;;;9.02;1.90;;;;;;;;;;5051659;28;20407;-61
2023/03/24 04:47:25;;;;;;;7.57;2.15;;;;;;;;;;5051431;28;20068;-61
2023/03/24 04:49:51;;;;;;;9.68;2.05;;;;;;;;;;5032639;28;20055;-61
2023/03/24 04:52:17;;;;;;;10.73;2.25;;;;;;;;;;5051257;28;20045;-61
2023/03/24 04:54:43;;;;;;;12.05;2.10;;;;;;;;;;5051255;28;20152;-61
2023/03/24 04:57:09;;;;;;;12.02;2.42;;;;;;;;;;5050649;28;20041;-61
2023/03/24 04:59:35;;;;;;;8.95;2.88;;;;;;;;;;5051196;28;20365;-61
2023/03/24 05:02:02;;;;;;;15.80;3.17;;;;;;;;;;5049835;28;20041;-61
2023/03/24 05:04:29;;;;;;;12.63;2.92;;;;;;;;;;5050421;28;20483;-61
2023/03/24 05:06:55;;;;;;;18.95;3.08;;;;;;;;;;5051164;28;20091;-61
2023/03/24 05:09:22;;;;;;;9.65;3.20;;;;;;;;;;5050243;28;20045;-61
2023/03/24 05:11:51;;;;;;;13.13;3.08;;;;;;;;;;5050328;28;20045;-61
2023/03/24 05:14:17;;;;;;;9.85;2.75;;;;;;;;;;5050985;28;20068;-61
2023/03/24 05:16:43;;;;;;;12.35;2.90;;;;;;;;;;5050994;28;20127;-61
2023/03/24 05:19:09;;;;;;;13.75;2.83;;;;;;;;;;5050301;28;20064;-61
2023/03/24 05:21:35;;;;;;;13.48;3.30;;;;;;;;;;5050773;28;20127;-61
2023/03/24 05:24:01;;;;;;;12.35;3.40;;;;;;;;;;5050475;28;20128;-61
2023/03/24 05:26:29;;;;;;;17.80;3.17;;;;;;;;;;5050250;28;20103;-61
2023/03/24 05:28:55;;;;;;;12.43;2.80;;;;;;;;;;5050705;28;20049;-61
2023/03/24 05:31:21;;;;;;;12.63;3.05;;;;;;;;;;5050758;28;20091;-61
2023/03/24 05:33:47;;;;;;;13.00;3.45;;;;;;;;;;5050078;28;20037;-61
2023/03/24 05:36:13;;;;;;;12.65;2.30;;;;;;;;;;5050819;28;20083;-61
2023/03/24 05:38:39;;;;;;;11.75;2.08;;;;;;;;;;5050309;28;20049;-61
2023/03/24 05:41:06;;;;;;;11.38;2.35;;;;;;;;;;5050008;28;20128;-61
2023/03/24 05:43:32;;;;;;;7.40;2.13;;;;;;;;;;5032761;28;20039;-61
2023/03/24 05:46:01;;;;;;;10.43;2.20;;;;;;;;;;5050170;28;20040;-61
2023/03/24 05:48:27;;;;;;;15.10;2.60;;;;;;;;;;5049905;28;20053;-61
2023/03/24 05:50:54;;;;;;;12.05;2.17;;;;;;;;;;5050439;28;20436;-61
2023/03/24 05:53:20;;;;;;;11.55;2.03;;;;;;;;;;5050573;28;20048;-61
2023/03/24 05:55:46;;;;;;;8.07;2.03;;;;;;;;;;5049578;28;20049;-61
2023/03/24 05:58:12;;;;;;;15.10;2.65;;;;;;;;;;5050507;28;20480;-61
2023/03/24 06:00:38;;;;;;;8.18;1.83;;;;;;;;;;5039400;28;20410;-61
2023/03/24 06:03:05;;;;;;;12.70;2.88;;;;;;;;;;5045289;28;20435;-61
2023/03/24 06:05:31;;;;;;;9.75;1.80;;;;;;;;;;5049990;28;20044;-61
2023/03/24 06:07:57;;;;;;;9.80;2.22;;;;;;;;;;5050015;28;20065;-61
2023/03/24 06:10:27;;;;;;;14.73;2.25;;;;;;;;;;5049581;28;20044;-61
2023/03/24 06:12:54;;;;;;;14.93;2.22;;;;;;;;;;5049855;28;20133;-61
2023/03/24 06:15:21;;;;;;;10.60;2.60;;;;;;;;;;5050275;28;20136;-61
2023/03/24 06:17:48;;;;;;;10.95;1.88;;;;;;;;;;5049472;28;20078;-61
2023/03/24 06:20:16;;;;;;;12.40;2.55;;;;;;;;;;5051954;28;20444;-61
2023/03/24 06:22:43;;;;;;;13.27;2.47;;;;;;;;;;5053581;28;20053;-61
2023/03/24 06:25:10;;;;;;;7.28;1.70;;;;;;;;;;5052899;28;20148;-61
2023/03/24 06:27:37;;;;;;;10.95;2.00;;;;;;;;;;5053953;28;20045;-61
2023/03/24 06:30:03;;;;;;;14.82;2.33;;;;;;;;;;5053638;28;20052;-61
2023/03/24 06:32:29;;;;;;;14.27;2.72;;;;;;;;;;5052972;28;20080;-61
2023/03/24 06:34:55;;;;;;;9.82;2.17;;;;;;;;;;5052913;28;20048;-61
2023/03/24 06:37:22;;;;;;;9.90;1.98;;;;;;;;;;5053251;28;20798;-63
2023/03/24 06:39:48;;;;;;;10.82;2.15;;;;;;;;;;5052579;28;20033;-62
2023/03/24 06:42:14;;;;;;;11.23;2.08;;;;;;;;;;5053673;28;20044;-61
2023/03/24 06:44:41;;;;;;;15.40;2.30;;;;;;;;;;5053009;28;20128;-61
2023/03/24 06:47:07;;;;;;;11.40;2.75;;;;;;;;;;5053040;28;20052;-62
2023/03/24 06:49:33;;;;;;;16.58;2.40;;;;;;;;;;5053045;28;20045;-61
2023/03/24 06:52:00;;;;;;;12.82;2.47;;;;;;;;;;5052318;28;20047;-61
2023/03/24 06:54:27;;;;;;;12.20;2.30;;;;;;;;;;5034945;28;20065;-61
2023/03/24 06:56:53;;;;;;;10.48;2.47;;;;;;;;;;5052905;28;20091;-62
2023/03/24 06:59:22;;;;;;;11.52;2.65;;;;;;;;;;5052991;28;20037;-61
2023/03/24 07:01:49;;;;;;;11.73;2.65;;;;;;;;;;5052273;28;20045;-62
2023/03/24 07:04:15;;;;;;;12.02;2.38;;;;;;;;;;5052782;28;20036;-62
2023/03/24 07:06:41;;;;;;;11.65;2.35;;;;;;;;;;5053210;28;20037;-62
2023/03/24 07:09:08;;;;;;;16.20;2.60;;;;;;;;;;5051592;28;20052;-62
2023/03/24 07:11:34;;;;;;;15.45;2.92;;;;;;;;;;5053072;28;20474;-62
2023/03/24 07:14:00;;;;;;;13.85;2.25;;;;;;;;;;5052287;28;20418;-63
2023/03/24 07:16:26;;;;;;;12.40;2.42;;;;;;;;;;5050543;28;20032;-63
2023/03/24 07:18:52;;;;;;;14.55;2.47;;;;;;;;;;5051969;28;20040;-62
2023/03/24 07:21:18;;;;;;;12.30;2.65;;;;;;;;;;5052410;28;20527;-61
2023/03/24 07:23:44;;;;;;;16.58;2.53;;;;;;;;;;5051275;28;20049;-61
2023/03/24 07:26:11;;;;;;;14.35;3.17;;;;;;;;;;5052425;28;20102;-62
2023/03/24 07:28:37;;;;;;;14.77;3.40;;;;;;;;;;5052408;28;20442;-63
2023/03/24 07:31:03;;;;;;;17.00;2.92;;;;;;;;;;5037948;28;20055;-63
2023/03/24 07:33:30;;;;;;;17.48;2.70;;;;;;;;;;5050559;28;20039;-62
2023/03/24 07:35:56;;;;;;;15.10;2.80;;;;;;;;;;5004160;28;20048;-62
2023/03/24 07:38:23;;;;;;;14.88;2.72;;;;;;;;;;5050716;28;20862;-62
2023/03/24 07:40:49;;;;;;;17.92;3.05;;;;;;;;;;5051252;28;20427;-63
2023/03/24 07:43:16;;;;;;;26.75;4.07;;;;;;;;;;5051923;28;20040;-62
2023/03/24 07:45:44;;;;;;;17.30;3.28;;;;;;;;;;5050244;28;20045;-62
2023/03/24 07:48:10;;;;;;;27.00;3.70;;;;;;;;;;5039934;28;20040;-62
2023/03/24 07:50:36;;;;;;;20.80;3.13;;;;;;;;;;5043941;28;20139;-62
2023/03/24 07:53:02;;;;;;;21.65;3.65;;;;;;;;;;5050975;28;20044;-62
2023/03/24 07:55:28;;;;;;;24.00;4.00;;;;;;;;;;5051128;28;20044;-61
2023/03/24 07:57:55;;;;;;;21.45;3.58;;;;;;;;;;5050953;28;20041;-62
2023/03/24 08:00:23;;;;;;;23.13;3.75;;;;;;;;;;5050612;28;20045;-62
2023/03/24 08:02:51;;;;;;;23.75;3.90;;;;;;;;;;5051446;28;20128;-62
2023/03/24 08:05:18;;;;;;;23.70;4.38;;;;;;;;;;5051076;28;20839;-62
2023/03/24 08:07:49;;;;;;;28.90;3.97;;;;;;;;;;5051300;28;20045;-62
2023/03/24 08:10:15;;;;;;;23.55;3.78;;;;;;;;;;5051630;28;20041;-62
2023/03/24 08:12:41;;;;;;;23.90;4.30;;;;;;;;;;5051470;28;20053;-63
2023/03/24 08:15:08;;;;;;;27.02;4.60;;;;;;;;;;5050573;28;20044;-62
2023/03/24 08:17:35;;;;;;;29.23;3.80;;;;;;;;;;5050551;28;20049;-61
2023/03/24 08:20:12;;;;;;;21.38;3.75;;;;;;;;;;5050962;28;20083;-61
2023/03/24 08:22:38;;;;;;;28.08;4.55;;;;;;;;;;5028984;28;20208;-61
2023/03/24 08:25:05;;;;;;;21.08;3.83;;;;;;;;;;5050720;28;20049;-62
2023/03/24 08:27:31;;;;;;;28.23;3.92;;;;;;;;;;5051008;28;20048;-62
2023/03/24 08:29:57;;;;;;;21.75;4.55;;;;;;;;;;5050507;28;20564;-62
2023/03/24 08:32:23;;;;;;;28.13;4.03;;;;;;;;;;5050785;28;20484;-62
2023/03/24 08:34:49;;;;;;;23.30;3.80;;;;;;;;;;5050989;28;20045;-62
2023/03/24 08:37:15;;;;;;;26.33;5.72;;;;;;;;;;5050192;28;20065;-63
2023/03/24 08:39:41;;;;;;;21.70;3.53;;;;;;;;;;5050512;28;20071;-62
2023/03/24 08:42:07;;;;;;;22.92;3.83;;;;;;;;;;5050856;28;20076;-62
2023/03/24 08:44:33;;;;;;;20.13;3.55;;;;;;;;;;5049206;28;20045;-63
2023/03/24 08:47:03;;;;;;;20.52;3.60;;;;;;;;;;5049502;28;20044;-63
2023/03/24 08:49:29;;;;;;;20.55;2.88;;;;;;;;;;5050580;28;20047;-64
2023/03/24 08:51:55;;;;;;;16.65;3.20;;;;;;;;;;5050475;28;20076;-63
2023/03/24 08:54:22;;;;;;;21.05;3.95;;;;;;;;;;5049934;28;20116;-63
2023/03/24 08:56:48;;;;;;;19.75;3.33;;;;;;;;;;5049944;28;20194;-62
2023/03/24 08:59:14;;;;;;;17.48;2.97;;;;;;;;;;5050682;28;20597;-62
2023/03/24 09:01:40;;;;;;;19.90;2.97;;;;;;;;;;5049602;28;20071;-62
2023/03/24 09:04:09;;;;;;;20.13;3.53;;;;;;;;;;5050390;28;20040;-62
2023/03/24 09:06:35;;;;;;;21.15;3.10;;;;;;;;;;5050112;28;20110;-63
2023/03/24 09:09:01;;;;;;;25.58;3.58;;;;;;;;;;5049671;28;20041;-63
2023/03/24 09:11:27;;;;;;;23.50;3.30;;;;;;;;;;5050610;28;20091;-63
2023/03/24 09:13:53;;;;;;;16.38;2.65;;;;;;;;;;5049953;28;20059;-62
2023/03/24 09:16:20;;;;;;;15.68;2.85;;;;;;;;;;5048844;28;20044;-62
2023/03/24 09:18:46;;;;;;;18.23;3.08;;;;;;;;;;5050504;28;20095;-62
2023/03/24 09:21:12;;;;;;;17.98;2.97;;;;;;;;;;5049933;28;20044;-62
2023/03/24 09:23:39;;;;;;;19.88;3.08;;;;;;;;;;5049238;28;20060;-62
2023/03/24 09:26:06;;;;;;;20.92;3.47;;;;;;;;;;5032037;28;20091;-63
2023/03/24 09:28:32;;;;;;;18.58;2.90;;;;;;;;;;5049623;28;20048;-62
2023/03/24 09:30:59;;;;;;;21.25;3.00;;;;;;;;;;5049518;28;20052;-63
2023/03/24 09:33:28;;;;;;;18.02;3.00;;;;;;;;;;5050085;28;20107;-62
2023/03/24 09:35:55;;;;;;;17.70;3.10;;;;;;;;;;5049605;28;20037;-62
2023/03/24 09:38:21;;;;;;;18.50;3.10;;;;;;;;;;5048730;28;20037;-62
2023/03/24 09:40:50;;;;;;;17.20;3.22;;;;;;;;;;5049519;28;20176;-62
2023/03/24 09:43:39;;;;;;;20.63;3.40;;;;;;;;;;5050081;28;20040;-63
2023/03/24 09:46:09;;;;;;;15.45;3.03;;;;;;;;;;5042988;28;20053;-63
2023/03/24 09:48:35;;;;;;;18.60;3.17;;;;;;;;;;5049237;28;20040;-62
2023/03/24 09:51:07;;;;;;;21.50;3.78;;;;;;;;;;5049829;28;20059;-62
2023/03/24 09:53:34;;;;;;;;;;;;;;;;;;5049686;28;20065;-62
2023/03/24 09:56:04;;;;;;;18.73;3.65;;;;;;;;;;5053221;28;19974;-63
2023/03/24 09:58:32;;;;;;;18.60;3.20;;;;;;;;;;5053670;28;20041;-62
2023/03/24 10:00:58;;;;;;;21.05;3.10;;;;;;;;;;5052918;28;20098;-63
2023/03/24 10:03:24;;;;;;;21.02;3.25;;;;;;;;;;5053649;28;20463;-62
2023/03/24 10:05:54;;;;;;;13.85;2.63;;;;;;;;;;5053098;28;20094;-62
2023/03/24 10:08:23;;;;;;;16.73;2.85;;;;;;;;;;5052945;28;20055;-62
2023/03/24 10:11:27;;;;;;;19.27;2.83;;;;;;;;;;5044043;28;20040;-63
2023/03/24 10:14:03;;;;;;;20.77;3.38;;;;;;;;;;5011923;28;20057;-63
2023/03/24 10:16:43;;;;;;;12.32;2.30;;;;;;;;;;5011003;28;20103;-63
2023/03/24 10:19:21;;;;;;;14.82;2.47;;;;;;;;;;5037512;28;20056;-63
2023/03/24 10:21:55;;;;;;;16.48;2.63;;;;;;;;;;5048048;28;20045;-62
2023/03/24 10:24:27;;;;;;;15.52;2.33;;;;;;;;;;5048313;28;20111;-62
2023/03/24 10:27:05;;;;;;;16.77;2.75;;;;;;;;;;5033269;28;20120;-63
2023/03/24 10:29:37;;;;;;;12.20;2.50;;;;;;;;;;5032709;28;20045;-62
2023/03/24 10:32:05;;;;;;;14.73;2.40;;;;;;;;;;5033402;28;20426;-62
2023/03/24 10:34:33;;;;;;;20.15;2.92;;;;;;;;;;5032597;28;20290;-62
2023/03/24 10:37:00;;;;;;;16.10;2.92;;;;;;;;;;5031897;28;20080;-62
2023/03/24 10:39:28;;;;;;;19.67;3.22;;;;;;;;;;5028561;28;20060;-63
2023/03/24 10:41:55;;;;;;;14.13;2.83;;;;;;;;;;5028891;28;20412;-62
2023/03/24 10:44:22;;;;;;;19.20;3.08;;;;;;;;;;5032502;28;20045;-64
2023/03/24 10:46:49;;;;;;;19.23;2.60;;;;;;;;;;5028373;28;20403;-63
2023/03/24 10:49:20;;;;;;;16.85;2.72;;;;;;;;;;5038226;28;20055;-62
2023/03/24 10:51:48;;;;;;;17.42;3.00;;;;;;;;;;5052646;28;20068;-62
2023/03/24 10:54:18;;;;;;;15.30;2.78;;;;;;;;;;5037742;28;20056;-62
2023/03/24 10:56:46;;;;;;;10.93;2.50;;;;;;;;;;5033440;28;20042;-62
2023/03/24 10:59:20;;;;;;;15.02;2.33;;;;;;;;;;5033322;28;20091;-61
2023/03/24 11:01:47;;;;;;;11.13;2.20;;;;;;;;;;5031971;28;20052;-62
2023/03/24 11:04:17;;;;;;;13.13;3.20;;;;;;;;;;5032394;28;20048;-64
2023/03/24 11:06:59;;;;;;;15.60;2.42;;;;;;;;;;5030315;28;20542;-63
2023/03/24 11:09:25;;;;;;;9.73;1.98;;;;;;;;;;5032272;28;20641;-63
2023/03/24 11:11:52;;;;;;;19.30;2.55;;;;;;;;;;5032470;28;20164;-63
2023/03/24 11:14:26;;;;;;;15.00;2.25;;;;;;;;;;5031408;28;20092;-63
2023/03/24 11:16:53;;;;;;;11.32;1.80;;;;;;;;;;5031806;28;20048;-63
2023/03/24 11:19:20;;;;;;;10.38;1.85;;;;;;;;;;5032190;28;20744;-62
2023/03/24 11:21:48;;;;;;;13.25;1.77;;;;;;;;;;5033502;28;20629;-62
2023/03/24 11:24:15;;;;;;;8.05;1.88;;;;;;;;;;5052433;28;20097;-63
2023/03/24 11:26:45;;;;;;;13.45;2.67;;;;;;;;;;5051352;28;20184;-63
2023/03/24 11:29:15;;;;;;;11.02;2.30;;;;;;;;;;5051354;28;20159;-64
2023/03/24 11:31:42;;;;;;;13.27;2.50;;;;;;;;;;5052145;28;20558;-64
2023/03/24 11:34:23;;;;;;;12.23;1.90;;;;;;;;;;5051669;28;20053;-64
2023/03/24 11:37:00;;;;;;;9.93;1.90;;;;;;;;;;5033319;28;20121;-64
2023/03/24 11:39:26;;;;;;;14.10;2.30;;;;;;;;;;5052424;28;20045;-63
2023/03/24 11:42:25;;;;;;;15.05;2.33;;;;;;;;;;5052129;28;20036;-63
2023/03/24 11:44:52;;;;;;;11.65;2.50;;;;;;;;;;5028551;28;20045;-63
2023/03/24 11:47:27;;;;;;;16.20;2.42;;;;;;;;;;5052374;28;20052;-63
2023/03/24 11:50:08;;;;;;;16.88;2.50;;;;;;;;;;5051090;28;20668;-64
2023/03/24 11:52:37;;;;;;;13.25;3.33;;;;;;;;;;5052133;28;20124;-62
2023/03/24 11:55:04;;;;;;;12.13;2.67;;;;;;;;;;5051702;28;20044;-62
2023/03/24 11:57:40;;;;;;;14.90;2.53;;;;;;;;;;5051151;28;20051;-62
2023/03/24 12:00:16;;;;;;;11.45;2.22;;;;;;;;;;5051897;28;20072;-63
2023/03/24 12:02:42;;;;;;;14.77;2.75;;;;;;;;;;5051803;28;20052;-62
2023/03/24 12:05:08;;;;;;;16.60;2.80;;;;;;;;;;5050923;28;20077;-62
2023/03/24 12:07:52;;;;;;;13.15;2.30;;;;;;;;;;5052170;28;20077;-63
2023/03/24 12:10:29;;;;;;;17.40;2.58;;;;;;;;;;5051612;28;20076;-63
2023/03/24 12:12:58;;;;;;;9.95;2.10;;;;;;;;;;5051053;28;20045;-63
2023/03/24 12:15:53;;;;;;;14.48;2.60;;;;;;;;;;5051766;28;20084;-62
2023/03/24 12:18:25;;;;;;;18.23;2.70;;;;;;;;;;5051274;28;20501;-62
2023/03/24 12:21:09;;;;;;;13.80;2.08;;;;;;;;;;5050626;28;20033;-62
2023/03/24 12:23:45;;;;;;;13.68;2.35;;;;;;;;;;5048570;28;20053;-62
2023/03/24 12:26:20;;;;;;;9.05;1.70;;;;;;;;;;5051277;28;20049;-62
2023/03/24 12:28:50;;;;;;;10.48;1.90;;;;;;;;;;5050739;28;20037;-62
2023/03/24 12:31:21;;;;;;;10.13;1.75;;;;;;;;;;5051086;28;20040;-62
2023/03/24 12:34:10;;;;;;;12.75;2.00;;;;;;;;;;5050692;28;20087;-62
2023/03/24 12:36:45;;;;;;;13.05;2.30;;;;;;;;;;5051034;28;20088;-62
2023/03/24 12:39:13;;;;;;;11.60;1.95;;;;;;;;;;5049144;28;20033;-63
2023/03/24 12:41:54;;;;;;;10.75;1.98;;;;;;;;;;5050220;28;20041;-62
2023/03/24 12:44:23;;;;;;;8.40;2.17;;;;;;;;;;5050997;28;20494;-63
2023/03/24 12:46:59;;;;;;;9.43;2.00;;;;;;;;;;5050587;28;20060;-64
2023/03/24 12:49:28;;;;;;;16.45;2.20;;;;;;;;;;5035655;28;20048;-62
2023/03/24 12:52:13;;;;;;;12.30;2.53;;;;;;;;;;5050474;28;20055;-62
2023/03/24 12:54:44;;;;;;;8.93;2.13;;;;;;;;;;5050506;28;20691;-62
2023/03/24 12:57:16;;;;;;;14.02;2.20;;;;;;;;;;5049704;28;20033;-62
2023/03/24 12:59:48;;;;;;;9.20;1.88;;;;;;;;;;5050733;28;20041;-62
2023/03/24 13:02:20;;;;;;;7.47;2.13;;;;;;;;;;5050348;28;20037;-62
2023/03/24 13:04:47;;;;;;;12.32;1.90;;;;;;;;;;5049567;28;20049;-63
2023/03/24 13:07:18;;;;;;;14.63;2.28;;;;;;;;;;5050585;28;20049;-63
2023/03/24 13:09:54;;;;;;;13.40;2.40;;;;;;;;;;5050147;28;20045;-63
2023/03/24 13:12:23;;;;;;;11.75;2.22;;;;;;;;;;5049939;28;20098;-63
2023/03/24 13:14:52;;;;;;;10.82;2.72;;;;;;;;;;5050316;28;20039;-61
2023/03/24 13:17:21;;;;;;;13.48;2.20;;;;;;;;;;5050090;28;20642;-63
2023/03/24 13:19:48;;;;;;;11.75;2.00;;;;;;;;;;5050040;28;20394;-64
2023/03/24 13:22:16;;;;;;;11.80;2.33;;;;;;;;;;5012205;28;20132;-62
2023/03/24 13:24:42;;;;;;;11.43;1.98;;;;;;;;;;5030205;28;20120;-62
2023/03/24 13:27:14;;;;;;;14.27;2.33;;;;;;;;;;5029558;28;20052;-62
2023/03/24 13:29:49;;;;;;;8.97;1.80;;;;;;;;;;5029596;28;20648;-62
2023/03/24 13:32:22;;;;;;;12.18;2.33;;;;;;;;;;5030092;28;20523;-62
2023/03/24 13:34:52;;;;;;;11.82;2.40;;;;;;;;;;5029432;28;20388;-62
2023/03/24 13:37:23;;;;;;;9.63;2.15;;;;;;;;;;5030498;28;20440;-62
2023/03/24 13:39:53;;;;;;;12.95;2.33;;;;;;;;;;5029945;28;20045;-62
2023/03/24 13:42:31;;;;;;;9.05;2.15;;;;;;;;;;5029613;28;20038;-62
2023/03/24 13:44:59;;;;;;;10.65;2.60;;;;;;;;;;5030142;28;20820;-62
2023/03/24 13:47:25;;;;;;;10.32;2.25;;;;;;;;;;5030236;28;20048;-61
2023/03/24 13:50:11;;;;;;;10.38;1.95;;;;;;;;;;5029168;28;20111;-63
2023/03/24 13:52:39;;;;;;;11.63;1.98;;;;;;;;;;5029651;28;20050;-62
2023/03/24 13:55:20;;;;;;;16.67;3.10;;;;;;;;;;5030012;28;20041;-61
2023/03/24 13:58:15;;;;;;;11.20;2.25;;;;;;;;;;5029522;28;20126;-62
2023/03/24 14:01:02;;;;;;;11.63;2.45;;;;;;;;;;5034100;28;20061;-62
2023/03/24 14:03:32;;;;;;;12.70;2.35;;;;;;;;;;5025146;28;20064;-62
2023/03/24 14:06:03;;;;;;;11.25;2.00;;;;;;;;;;5029751;28;20054;-62
2023/03/24 14:08:48;;;;;;;9.17;2.10;;;;;;;;;;5030312;28;20400;-62
2023/03/24 14:11:37;;;;;;;11.15;2.28;;;;;;;;;;5029616;28;20280;-63
2023/03/24 14:14:15;;;;;;;12.68;2.38;;;;;;;;;;5030412;28;20053;-62
2023/03/24 14:16:43;;;;;;;8.75;2.05;;;;;;;;;;5029964;28;20033;-62
2023/03/24 14:19:23;;;;;;;13.23;2.22;;;;;;;;;;5029307;28;20141;-63
2023/03/24 14:21:56;;;;;;;6.18;1.70;;;;;;;;;;5031934;28;20045;-63
2023/03/24 14:24:28;;;;;;;15.40;3.50;;;;;;;;;;5049885;28;20854;-63
2023/03/24 14:26:55;;;;;;;13.48;1.80;;;;;;;;;;5049225;28;20687;-62
2023/03/24 14:29:47;;;;;;;12.93;2.15;;;;;;;;;;5049714;28;20037;-62
2023/03/24 14:32:13;;;;;;;;;;;;;;;;;;5050425;28;20415;-62
2023/03/24 14:34:49;;;;;;;11.05;1.80;;;;;;;;;;5049271;28;19925;-62
2023/03/24 14:37:15;;;;;;;7.22;1.63;;;;;;;;;;5050080;28;20537;-62
2023/03/24 14:39:43;;;;;;;6.85;1.30;;;;;;;;;;5049728;28;20047;-62
2023/03/24 14:42:35;;;;;;;9.50;1.45;;;;;;;;;;5052880;28;20043;-62
2023/03/24 14:45:03;;;;;;;8.60;1.58;;;;;;;;;;5037650;28;20136;-62
2023/03/24 14:47:33;;;;;;;7.55;1.45;;;;;;;;;;5052767;28;20033;-62
2023/03/24 14:50:11;;;;;;;8.20;1.60;;;;;;;;;;5053720;28;20526;-62
2023/03/24 14:52:41;;;;;;;9.75;1.70;;;;;;;;;;5053794;28;20128;-62
2023/03/24 14:55:11;;;;;;;7.13;1.30;;;;;;;;;;5053038;28;20052;-62